Time;durP1;ratioP1;P1;durP2;ratioP2;P2;SDS_P1;SDS_P2;PMS_P1;PMS_P2;Temp;Humidity;BMP_temperature;BMP_pressure;BME280_temperature;BME280_humidity;BME280_pressure;Samples;Min_cycle;Max_cycle;Signal;HPM_P1;HPM_P2
2022/07/22 00:06:36;;;;;;;6.32;4.05;;;;;;;26.26;44.34;100281.44;30745107;28;97510;-67
2022/07/22 00:21:37;;;;;;;6.47;4.03;;;;;;;26.29;44.62;100286.34;30744815;28;96836;-67
2022/07/22 00:36:37;;;;;;;7.22;5.03;;;;;;;26.24;44.45;100282.81;30743357;28;96794;-67
2022/07/22 00:51:39;;;;;;;7.10;4.68;;;;;;;26.01;44.90;100274.03;30741532;28;97378;-68
2022/07/22 01:06:44;;;;;;;6.43;4.63;;;;;;;25.78;45.15;100297.16;30741284;28;96984;-67
2022/07/22 01:21:44;;;;;;;6.27;4.90;;;;;;;25.03;46.52;100316.47;30738548;28;97983;-67
2022/07/22 01:36:45;;;;;;;9.07;5.20;;;;;;;24.59;48.33;100321.06;30737423;28;97928;-65
2022/07/22 01:51:45;;;;;;;7.75;5.63;;;;;;;24.10;48.63;100318.47;30735157;28;97583;-65
2022/07/22 02:06:45;;;;;;;10.00;5.43;;;;;;;23.34;50.19;100316.50;30735592;28;96840;-65
2022/07/22 02:21:46;;;;;;;8.32;6.07;;;;;;;22.73;51.92;100356.09;30734490;28;96687;-65
2022/07/22 02:36:46;;;;;;;8.55;6.05;;;;;;;22.17;53.53;100391.19;30732835;28;96760;-65
2022/07/22 02:51:47;;;;;;;10.33;6.50;;;;;;;;;;30731432;28;96896;-65
2022/07/22 03:06:48;;;;;;;9.07;6.70;;;;;;;21.16;58.61;100479.00;30751025;28;96291;-64
2022/07/22 03:21:48;;;;;;;10.80;6.67;;;;;;;21.06;60.42;100421.84;30748806;28;96811;-65
2022/07/22 03:36:49;;;;;;;10.10;6.77;;;;;;;21.25;62.02;100361.06;30749469;28;96845;-64
2022/07/22 03:51:49;;;;;;;13.47;7.40;;;;;;;21.28;63.92;100328.09;30747241;28;96684;-65
2022/07/22 04:06:51;;;;;;;13.20;8.07;;;;;;;21.36;64.76;100307.94;30744910;28;97133;-67
2022/07/22 04:21:51;;;;;;;14.33;8.30;;;;;;;21.41;65.68;100301.81;30740412;28;97496;-67
2022/07/22 04:36:51;;;;;;;14.30;9.30;;;;;;;21.62;66.19;100284.94;30741097;28;97406;-66
2022/07/22 04:51:52;;;;;;;17.80;9.03;;;;;;;21.69;66.01;100302.94;30740564;28;96691;-66
2022/07/22 05:06:52;;;;;;;17.63;9.33;;;;;;;21.80;66.46;100318.31;30737151;28;96904;-66
2022/07/22 05:21:52;;;;;;;42.93;31.17;;;;;;;22.38;66.02;100323.75;30737313;28;96746;-67
2022/07/22 05:36:53;;;;;;;15.53;9.77;;;;;;;23.07;64.87;100338.91;30737259;28;96799;-66
2022/07/22 05:51:53;;;;;;;15.35;8.32;;;;;;;23.80;63.02;100357.84;30734376;28;97046;-66
2022/07/22 06:06:54;;;;;;;;;;;;;;;24.15;61.49;100364.75;30733638;28;96689;-66
2022/07/22 06:21:55;;;;;;;12.00;7.97;;;;;;;24.90;60.13;100366.81;30732091;28;96740;-66
2022/07/22 06:36:55;;;;;;;13.53;7.77;;;;;;;26.22;55.24;100356.81;30730352;28;97420;-68
2022/07/22 06:51:56;;;;;;;11.60;7.97;;;;;;;26.82;52.88;100357.13;30727037;28;97612;-69
2022/07/22 07:06:56;;;;;;;13.73;8.32;;;;;;;26.61;52.13;100361.72;30727625;28;96750;-68
2022/07/22 07:21:56;;;;;;;9.23;7.82;;;;;;;27.54;50.38;100364.34;30725913;28;97318;-69
2022/07/22 07:36:57;;;;;;;9.65;7.00;;;;;;;28.65;47.05;100374.13;30724594;28;105688;-69
2022/07/22 07:51:58;;;;;;;10.43;8.10;;;;;;;28.60;45.58;100371.41;30740318;28;96861;-68
2022/07/22 08:06:58;;;;;;;16.45;8.30;;;;;;;28.50;45.11;100366.81;30743803;28;96795;-68
2022/07/22 08:21:59;;;;;;;9.82;7.70;;;;;;;29.93;42.38;100356.56;30741794;28;97837;-69
2022/07/22 08:36:59;;;;;;;12.40;7.32;;;;;;;30.26;41.50;100364.88;30741205;28;97148;-68
2022/07/22 08:51:59;;;;;;;10.07;6.70;;;;;;;31.29;39.00;100371.38;30732674;28;97389;-67
2022/07/22 09:07:00;;;;;;;8.40;7.22;;;;;;;32.01;37.91;100364.38;30729713;28;96774;-67
2022/07/22 09:22:00;;;;;;;10.90;7.95;;;;;;;33.59;34.75;100357.84;30729075;28;97248;-67
2022/07/22 09:37:01;;;;;;;7.65;5.53;;;;;;;33.90;32.22;100354.19;30726103;28;97251;-66
2022/07/22 09:52:02;;;;;;;8.13;6.70;;;;;;;34.64;31.37;100349.59;30722884;28;96876;-66
2022/07/22 10:07:03;;;;;;;6.32;5.72;;;;;;;35.14;30.35;100334.28;30722978;28;97016;-66
2022/07/22 10:22:04;;;;;;;7.00;5.30;;;;;;;33.77;29.58;100328.34;30718323;28;97120;-66
2022/07/22 10:37:32;;;;;;;7.97;5.00;;;;;;;33.87;29.63;100308.69;30729547;28;96837;-70
2022/07/22 10:52:34;;;;;;;6.87;5.60;;;;;;;33.95;28.15;100307.03;30729316;28;97544;-66
2022/07/22 11:07:44;;;;;;;7.23;4.73;;;;;;;35.66;27.20;100299.94;30724230;28;96976;-68
2022/07/22 11:22:46;;;;;;;7.10;4.67;;;;;;;36.08;25.94;100288.84;30739527;28;96814;-67
2022/07/22 11:37:56;;;;;;;6.50;3.90;;;;;;;35.67;24.83;100267.53;30745763;28;96813;-69
2022/07/22 11:52:56;;;;;;;7.50;3.63;;;;;;;36.46;23.44;100259.28;30741702;28;97099;-67
2022/07/22 12:07:57;;;;;;;6.70;4.10;;;;;;;35.44;24.21;100247.66;30742090;28;111414;-66
2022/07/22 12:23:00;;;;;;;7.38;4.00;;;;;;;35.97;23.46;100239.75;30740987;28;96835;-66
2022/07/22 12:38:07;;;;;;;5.13;3.97;;;;;;;36.58;22.96;100220.47;30739255;28;98738;-67
2022/07/22 12:53:10;;;;;;;4.43;3.60;;;;;;;34.75;24.34;100215.28;30731485;28;97092;-69
2022/07/22 13:08:11;;;;;;;5.40;4.07;;;;;;;34.46;24.57;100204.19;30736063;28;100875;-68
2022/07/22 13:23:11;;;;;;;9.52;7.38;;;;;;;34.77;24.55;100200.31;30735314;28;96771;-67
2022/07/22 13:38:11;;;;;;;6.22;4.10;;;;;;;36.08;23.81;100194.59;30733933;28;96887;-67
2022/07/22 13:53:12;;;;;;;6.85;4.18;;;;;;;35.56;23.71;100179.28;30731678;28;99072;-68
2022/07/22 14:08:12;;;;;;;4.38;3.75;;;;;;;34.25;24.98;100188.31;30753400;28;97328;-67
2022/07/22 14:23:16;;;;;;;9.70;4.57;;;;;;;34.23;25.85;100176.78;30787720;28;97864;-70
2022/07/22 14:38:17;;;;;;;6.97;4.50;;;;;;;34.22;26.17;100164.91;30791451;28;97194;-65
2022/07/22 14:53:18;;;;;;;5.60;4.10;;;;;;;34.18;25.90;100165.91;30794193;28;97268;-65
2022/07/22 15:08:18;;;;;;;8.25;4.43;;;;;;;33.53;26.40;100146.50;30803216;28;97498;-65
2022/07/22 15:23:19;;;;;;;5.85;4.40;;;;;;;33.19;27.37;100148.94;30805027;28;97904;-66
2022/07/22 15:38:20;;;;;;;7.20;4.45;;;;;;;33.00;27.56;100131.88;30734630;28;97695;-67
2022/07/22 15:53:20;;;;;;;6.22;5.25;;;;;;;32.94;28.20;100128.44;30733807;28;97477;-66
2022/07/22 16:08:21;;;;;;;8.38;4.78;;;;;;;32.82;28.04;100117.25;30739403;28;96999;-66
2022/07/22 16:23:21;;;;;;;8.50;4.75;;;;;;;32.70;28.87;100121.44;30739358;28;97210;-68
2022/07/22 16:38:22;;;;;;;11.25;4.95;;;;;;;32.56;28.72;100116.03;30736616;28;97151;-70
2022/07/22 16:53:22;;;;;;;7.25;4.40;;;;;;;32.42;29.03;100114.53;30737714;28;97114;-66
2022/07/22 17:08:22;;;;;;;10.13;5.32;;;;;;;31.94;29.80;100116.88;30731762;28;97510;-67
2022/07/22 17:23:23;;;;;;;6.13;4.68;;;;;;;31.68;29.99;100112.03;30732730;28;96720;-66
2022/07/22 17:38:23;;;;;;;5.80;4.30;;;;;;;31.54;30.44;100122.28;30733036;28;96703;-66
2022/07/22 17:53:24;;;;;;;5.22;4.63;;;;;;;31.41;30.68;100123.97;30732307;28;96768;-66
2022/07/22 18:08:24;;;;;;;9.90;5.53;;;;;;;30.98;31.39;100136.22;30626448;28;96670;-66
2022/07/22 18:23:25;;;;;;;6.70;5.38;;;;;;;30.03;33.43;100137.53;30601401;28;97618;-64
2022/07/22 18:38:25;;;;;;;8.48;4.90;;;;;;;29.32;35.70;100134.81;30599553;28;96798;-65
2022/07/22 18:53:25;;;;;;;7.63;5.88;;;;;;;28.75;37.10;100144.91;30597153;28;97117;-70
2022/07/22 19:08:27;;;;;;;10.38;5.93;;;;;;;28.35;37.73;100158.72;30672525;28;97487;-66
2022/07/22 19:23:27;;;;;;;8.10;5.97;;;;;;;28.05;38.63;100171.66;30717457;28;97600;-65
2022/07/22 19:38:28;;;;;;;9.63;6.18;;;;;;;27.69;39.26;100175.47;30721515;28;96637;-65
2022/07/22 19:53:28;;;;;;;9.07;7.97;;;;;;;26.94;40.98;100176.44;30735167;28;97574;-66
2022/07/22 20:08:28;;;;;;;9.13;6.15;;;;;;;26.46;42.15;100192.41;30732287;28;97471;-65
2022/07/22 20:23:29;;;;;;;8.85;6.45;;;;;;;26.48;42.94;100190.22;30734919;28;97319;-65
2022/07/22 20:38:29;;;;;;;13.75;6.63;;;;;;;26.39;43.27;100208.25;30732168;28;96857;-66
2022/07/22 20:53:29;;;;;;;11.20;7.03;;;;;;;26.02;43.67;100204.72;30729313;28;97774;-66
2022/07/22 21:08:30;;;;;;;7.72;6.65;;;;;;;25.56;44.73;100202.78;30743843;28;96756;-65
2022/07/22 21:23:31;;;;;;;15.63;7.97;;;;;;;25.25;45.83;100213.56;30728332;28;97077;-64
2022/07/22 21:38:32;;;;;;;10.30;7.30;;;;;;;25.20;46.17;100218.97;30726572;28;96808;-66
2022/07/22 21:53:32;;;;;;;9.32;7.05;;;;;;;25.05;46.92;100224.38;30725648;28;112132;-65
2022/07/22 22:08:32;;;;;;;10.45;6.80;;;;;;;24.95;47.11;100236.06;30723800;28;104015;-70
2022/07/22 22:23:33;;;;;;;11.48;7.95;;;;;;;24.73;47.31;100223.41;30733527;28;97423;-66
2022/07/22 22:38:33;;;;;;;10.13;7.60;;;;;;;24.45;48.16;100232.72;30732268;28;97022;-66
2022/07/22 22:53:34;;;;;;;10.57;7.32;;;;;;;23.95;48.98;100237.53;30730025;28;99462;-69
2022/07/22 23:08:35;;;;;;;10.90;7.00;;;;;;;23.39;50.17;100235.00;30730206;28;96710;-64
2022/07/22 23:23:35;;;;;;;;;;;;;;;23.38;50.70;100238.81;30749279;28;97294;-65
2022/07/22 23:38:35;;;;;;;14.07;8.30;;;;;;;23.22;51.38;100227.75;30749808;28;97149;-68
2022/07/22 23:53:36;;;;;;;16.70;9.25;;;;;;;23.01;51.99;100213.06;30746696;28;97179;-65
